Time;durP1;ratioP1;P1;durP2;ratioP2;P2;SDS_P1;SDS_P2;PMS_P1;PMS_P2;Temp;Humidity;BMP_temperature;BMP_pressure;BME280_temperature;BME280_humidity;BME280_pressure;Samples;Min_cycle;Max_cycle;Signal;HPM_P1;HPM_P2
2022/03/10 00:01:58;;;;;;;;;35.50;35.00;;;;;11.04;48.83;101223.00;5060864;28;45556;-59
2022/03/10 00:04:24;;;;;;;;;45.00;36.75;;;;;11.02;49.45;101219.53;5055720;28;46031;-59
2022/03/10 00:06:49;;;;;;;;;37.75;34.50;;;;;10.99;48.61;101224.88;5058948;28;45568;-58
2022/03/10 00:09:14;;;;;;;;;33.50;29.00;;;;;10.99;49.32;101221.38;5057836;28;45909;-58
2022/03/10 00:11:40;;;;;;;;;36.25;32.25;;;;;10.97;49.22;101224.06;5058683;28;45754;-58
2022/03/10 00:14:05;;;;;;;;;34.50;33.75;;;;;10.95;48.39;101215.31;5061764;28;45558;-59
2022/03/10 00:16:31;;;;;;;;;39.50;35.00;;;;;10.95;49.16;101214.47;5071167;28;45401;-58
2022/03/10 00:18:57;;;;;;;;;35.00;34.75;;;;;10.93;48.55;101213.63;5056776;28;45417;-59
2022/03/10 00:21:22;;;;;;;;;41.50;38.00;;;;;10.93;49.24;101217.13;5054691;28;45540;-59
2022/03/10 00:23:47;;;;;;;;;38.25;34.50;;;;;10.92;48.75;101214.56;5054394;27;45998;-59
2022/03/10 00:26:13;;;;;;;;;41.00;35.75;;;;;10.90;49.03;101218.97;5063501;28;45513;-59
2022/03/10 00:28:38;;;;;;;;;37.00;34.75;;;;;10.88;49.51;101208.53;5055386;28;45608;-58
2022/03/10 00:31:03;;;;;;;;;40.25;35.25;;;;;10.86;49.33;101217.34;5056559;28;45636;-59
2022/03/10 00:33:29;;;;;;;;;36.50;35.25;;;;;10.80;48.81;101213.09;5056322;28;46269;-58
2022/03/10 00:35:54;;;;;;;;;43.00;37.25;;;;;10.84;49.22;101223.50;5058755;28;45451;-59
2022/03/10 00:38:19;;;;;;;;;38.75;36.25;;;;;10.83;49.08;101227.06;5055210;28;45373;-58
2022/03/10 00:40:45;;;;;;;;;38.00;33.00;;;;;10.83;48.73;101227.06;5057812;28;45534;-58
2022/03/10 00:43:12;;;;;;;;;34.50;33.00;;;;;10.83;49.02;101220.94;5062221;28;45558;-59
2022/03/10 00:45:38;;;;;;;;;37.50;34.25;;;;;10.82;48.63;101220.03;5063778;28;45481;-59
2022/03/10 00:48:03;;;;;;;;;39.00;35.00;;;;;10.79;49.55;101221.91;5061691;28;45529;-59
2022/03/10 00:50:29;;;;;;;;;38.00;33.75;;;;;10.80;48.85;101232.41;5070422;27;45473;-59
2022/03/10 00:52:54;;;;;;;;;37.25;34.25;;;;;10.77;49.83;101235.13;5069258;27;45441;-59
2022/03/10 00:55:21;;;;;;;;;46.25;40.00;;;;;10.75;49.71;101236.91;5062644;28;45468;-59
2022/03/10 00:57:47;;;;;;;;;45.00;38.25;;;;;10.73;49.34;101228.19;5067543;27;45511;-56
2022/03/10 01:00:13;;;;;;;;;41.25;37.75;;;;;10.71;49.53;101223.88;5062690;28;45576;-59
2022/03/10 01:02:39;;;;;;;;;41.75;38.75;;;;;10.70;50.06;101230.03;5061012;27;48135;-59
2022/03/10 01:05:06;;;;;;;;;45.25;39.75;;;;;10.68;49.61;101223.94;5057944;28;45410;-58
2022/03/10 01:07:31;;;;;;;;;47.00;40.00;;;;;10.66;50.27;101223.13;5062266;28;45664;-58
2022/03/10 01:09:57;;;;;;;;;44.50;40.50;;;;;10.63;50.26;101224.06;5066483;28;45673;-57
2022/03/10 01:12:22;;;;;;;;;52.25;41.50;;;;;10.61;49.89;101231.13;5077378;28;46473;-57
2022/03/10 01:14:48;;;;;;;;;46.50;38.75;;;;;10.58;49.97;101233.84;5061689;28;45421;-58
2022/03/10 01:17:13;;;;;;;;;44.75;38.50;;;;;10.57;50.15;101229.50;5072969;28;45874;-58
2022/03/10 01:19:38;;;;;;;;;41.75;37.75;;;;;10.57;50.14;101234.75;5062802;28;45580;-58
2022/03/10 01:22:04;;;;;;;;;43.50;38.75;;;;;10.56;50.00;101217.25;5058256;28;45500;-58
2022/03/10 01:24:29;;;;;;;;;44.00;39.00;;;;;10.52;50.04;101229.59;5058497;28;45405;-58
2022/03/10 01:26:55;;;;;;;;;43.00;37.00;;;;;10.52;50.35;101228.75;5058375;28;45524;-59
2022/03/10 01:29:20;;;;;;;;;41.25;36.75;;;;;10.49;50.20;101232.31;5066839;27;45868;-59
2022/03/10 01:31:46;;;;;;;;;49.50;39.25;;;;;10.43;49.81;101216.69;5075985;28;45425;-58
2022/03/10 01:34:13;;;;;;;;;43.25;36.50;;;;;10.48;50.23;101229.72;5057534;28;45514;-58
2022/03/10 01:36:39;;;;;;;;;43.25;37.75;;;;;10.47;49.78;101226.22;5076348;28;45455;-59
2022/03/10 01:39:04;;;;;;;;;41.25;37.00;;;;;10.47;49.65;101233.25;5068561;28;45544;-59
2022/03/10 01:41:32;;;;;;;;;37.25;34.75;;;;;10.45;49.78;101230.66;5060077;28;45778;-59
2022/03/10 01:44:00;;;;;;;;;38.00;34.50;;;;;10.44;49.89;101228.06;5057925;28;45522;-59
2022/03/10 01:46:26;;;;;;;;;43.00;39.25;;;;;10.44;50.28;101228.06;5070819;28;45458;-59
2022/03/10 01:48:52;;;;;;;;;43.00;37.50;;;;;10.43;49.56;101215.81;5078138;27;45622;-57
2022/03/10 01:51:18;;;;;;;;;48.50;39.00;;;;;10.35;49.84;101206.34;5064476;28;45300;-59
2022/03/10 01:53:43;;;;;;;;;37.75;34.75;;;;;10.42;49.79;101222.81;5057424;28;45412;-58
2022/03/10 01:56:10;;;;;;;;;39.75;37.25;;;;;10.37;49.54;101220.34;5073669;27;45509;-59
2022/03/10 01:58:37;;;;;;;;;39.50;38.00;;;;;10.38;49.52;101216.78;5059252;27;45569;-59
2022/03/10 02:01:03;;;;;;;;;44.00;38.00;;;;;10.38;49.27;101214.16;5057139;28;45449;-59
2022/03/10 02:03:28;;;;;;;;;46.75;38.25;;;;;10.37;49.64;101215.06;5057512;28;45497;-58
2022/03/10 02:05:54;;;;;;;;;45.50;37.25;;;;;10.35;49.78;101210.75;5057661;28;45521;-59
2022/03/10 02:11:05;;;;;;;;;50.25;38.50;;;;;10.29;49.23;101217.03;5076808;28;45444;-59
2022/03/10 02:13:30;;;;;;;;;43.00;38.00;;;;;10.27;49.35;101220.56;5066037;27;45625;-60
2022/03/10 02:18:39;;;;;;;;;30.75;29.25;;;;;10.24;49.46;101210.13;5057769;28;45465;-59
2022/03/10 02:21:04;;;;;;;;;30.50;27.50;;;;;10.22;49.20;101206.66;5056977;28;46116;-59
2022/03/10 02:23:30;;;;;;;;;39.25;35.25;;;;;10.17;49.09;101204.13;5057663;28;45469;-58
2022/03/10 02:26:00;;;;;;;;;39.25;36.50;;;;;10.19;48.87;101210.22;5070393;28;45434;-59
2022/03/10 02:28:27;;;;;;;;;32.25;32.25;;;;;10.16;49.28;101211.16;5077689;28;45581;-59
2022/03/10 02:30:53;;;;;;;;;40.50;34.75;;;;;10.16;49.04;101208.53;5068479;27;46434;-57
2022/03/10 02:33:18;;;;;;;;;38.25;37.25;;;;;10.12;49.22;101206.88;5057291;28;45431;-59
2022/03/10 02:35:44;;;;;;;;;36.25;33.50;;;;;10.06;48.84;101204.38;5057277;28;45480;-58
2022/03/10 02:38:17;;;;;;;;;40.00;36.00;;;;;10.06;49.13;101206.16;5057342;28;45589;-58
2022/03/10 02:40:43;;;;;;;;;38.00;34.25;;;;;10.02;49.05;101205.38;5074130;27;45503;-58
2022/03/10 02:43:08;;;;;;;;;39.00;36.25;;;;;10.02;49.08;101215.00;5076017;28;45456;-58
2022/03/10 02:45:34;;;;;;;;;41.50;32.00;;;;;10.02;49.36;101209.75;5077449;28;45417;-58
2022/03/10 02:47:59;;;;;;;;;35.25;31.00;;;;;10.01;49.21;101211.50;5072084;28;45393;-57
2022/03/10 02:50:24;;;;;;;;;36.50;33.00;;;;;9.95;49.31;101209.91;5068985;27;45467;-58
2022/03/10 02:52:50;;;;;;;;;38.50;36.25;;;;;9.94;49.32;101215.19;5077100;27;45374;-56
2022/03/10 02:55:16;;;;;;;;;39.75;34.00;;;;;9.94;49.56;101215.19;5076596;28;45644;-58
2022/03/10 02:57:41;;;;;;;;;39.75;36.25;;;;;9.90;49.52;101219.63;5077284;28;45414;-58
2022/03/10 03:00:08;;;;;;;;;38.25;35.75;;;;;9.87;49.55;101224.09;5062784;28;46286;-58
2022/03/10 03:02:33;;;;;;;;;37.50;33.25;;;;;9.85;49.58;101224.13;5071389;27;45473;-58
2022/03/10 03:04:59;;;;;;;;;36.00;34.00;;;;;9.81;49.90;101225.13;5069496;28;45371;-59
2022/03/10 03:07:24;;;;;;;;;35.75;33.75;;;;;9.79;50.08;101219.03;5076634;27;45440;-58
2022/03/10 03:09:50;;;;;;;;;42.75;38.00;;;;;9.80;49.79;101219.88;5063963;27;45975;-58
2022/03/10 03:12:16;;;;;;;;;40.75;36.50;;;;;9.74;49.70;101215.63;5056363;28;45375;-58
2022/03/10 03:14:41;;;;;;;;;38.25;37.25;;;;;9.77;49.75;101223.44;5060126;28;45597;-58
2022/03/10 03:17:07;;;;;;;;;37.75;35.50;;;;;9.73;49.91;101220.03;5076828;28;45647;-58
2022/03/10 03:19:32;;;;;;;;;36.00;34.75;;;;;9.75;49.80;101227.84;5075979;27;46289;-58
2022/03/10 03:21:57;;;;;;;;;43.00;37.25;;;;;9.67;50.26;101224.53;5067542;28;45560;-58
2022/03/10 03:24:23;;;;;;;;;32.00;30.25;;;;;9.69;50.21;101233.25;5056622;28;45488;-58
2022/03/10 03:26:49;;;;;;;;;37.25;35.50;;;;;9.65;49.94;101229.84;5056558;28;45435;-58
2022/03/10 03:29:14;;;;;;;;;37.50;32.75;;;;;9.67;50.45;101232.41;5056099;28;46740;-58
2022/03/10 03:31:39;;;;;;;;;42.25;36.75;;;;;9.62;50.42;101229.91;5056175;28;45461;-58
2022/03/10 03:34:10;;;;;;;;;42.25;37.25;;;;;9.62;49.81;101232.53;5056590;28;45470;-58
2022/03/10 03:36:40;;;;;;;;;37.00;33.25;;;;;9.62;50.03;101236.94;5056087;28;45490;-59
2022/03/10 03:39:06;;;;;;;;;35.50;33.00;;;;;9.59;50.01;101236.97;5062091;28;46180;-58
2022/03/10 03:41:32;;;;;;;;;36.75;33.25;;;;;9.58;50.18;101248.38;5056399;28;45417;-58
2022/03/10 03:43:57;;;;;;;;;34.50;34.50;;;;;9.56;50.32;101245.75;5056626;28;45388;-58
2022/03/10 03:46:23;;;;;;;;;35.00;33.25;;;;;9.57;50.01;101238.78;5055017;28;45481;-58
2022/03/10 03:48:48;;;;;;;;;34.50;32.00;;;;;9.56;50.32;101243.13;5065240;28;45462;-58
2022/03/10 03:51:14;;;;;;;;;49.50;42.25;;;;;9.60;50.39;101238.72;5055786;28;45390;-59
2022/03/10 03:53:39;;;;;;;;;33.00;33.00;;;;;9.58;50.46;101240.50;5055948;28;45316;-58
2022/03/10 03:56:05;;;;;;;;;39.50;35.25;;;;;9.59;50.18;101244.84;5057041;28;45730;-58
2022/03/10 03:58:30;;;;;;;;;41.75;37.25;;;;;9.56;50.39;101240.50;5056324;28;45388;-59
2022/03/10 04:00:55;;;;;;;;;35.75;32.25;;;;;9.55;50.57;101237.94;5056935;28;45378;-58
2022/03/10 04:03:21;;;;;;;;;40.25;36.25;;;;;9.52;50.34;101241.50;5076139;28;48242;-59
2022/03/10 04:05:46;;;;;;;;;43.50;35.00;;;;;9.45;50.82;101239.88;5062775;28;45497;-58
2022/03/10 04:08:12;;;;;;;;;46.00;38.00;;;;;9.47;50.31;101244.19;5072480;28;45431;-58
2022/03/10 04:10:38;;;;;;;;;40.25;36.00;;;;;9.50;50.51;101254.63;5075785;28;46273;-58
2022/03/10 04:13:05;;;;;;;;;40.50;36.75;;;;;9.48;50.74;101248.56;5062112;27;45576;-58
2022/03/10 04:15:32;;;;;;;;;43.00;36.25;;;;;9.49;50.62;101252.91;5055579;28;45610;-59
2022/03/10 04:17:58;;;;;;;;;38.50;36.00;;;;;9.47;50.44;101238.94;5054387;28;45521;-58
2022/03/10 04:20:23;;;;;;;;;36.75;35.75;;;;;9.44;50.75;101253.91;5055580;28;45467;-59
2022/03/10 04:22:49;;;;;;;;;37.75;34.75;;;;;9.40;50.84;101252.22;5066898;28;45334;-58
2022/03/10 04:25:14;;;;;;;;;43.75;36.00;;;;;9.37;50.80;101260.16;5055811;28;45367;-58
2022/03/10 04:27:40;;;;;;;;;37.50;34.75;;;;;9.35;50.67;101254.06;5055613;28;45395;-58
2022/03/10 04:30:06;;;;;;;;;42.25;38.75;;;;;9.28;50.92;101251.59;5055855;28;45448;-59
2022/03/10 04:32:46;;;;;;;;;33.25;31.00;;;;;9.29;50.69;101252.44;5056061;28;45512;-58
2022/03/10 04:35:14;;;;;;;;;42.75;39.00;;;;;9.31;50.95;101262.91;5055784;28;45401;-58
2022/03/10 04:37:39;;;;;;;;;42.50;38.50;;;;;9.29;51.18;101261.19;5064981;28;45894;-57
2022/03/10 04:40:07;;;;;;;;;39.25;37.25;;;;;9.31;51.04;101262.91;5075555;28;45418;-60
2022/03/10 04:42:34;;;;;;;;;38.25;36.00;;;;;9.34;50.91;101263.72;5076011;28;45428;-56
2022/03/10 04:44:59;;;;;;;;;42.00;37.50;;;;;9.33;51.27;101258.50;5073259;28;45588;-58
2022/03/10 04:47:24;;;;;;;;;36.50;36.25;;;;;9.29;50.88;101258.56;5055593;28;45770;-59
2022/03/10 04:49:50;;;;;;;;;42.00;36.50;;;;;9.31;51.08;101258.53;5055536;28;45559;-58
2022/03/10 04:52:15;;;;;;;;;35.50;35.50;;;;;9.29;51.01;101263.84;5063205;28;45574;-58
2022/03/10 04:54:40;;;;;;;;;43.25;37.50;;;;;9.21;51.21;101249.09;5055268;28;45398;-58
2022/03/10 04:57:07;;;;;;;;;38.50;35.50;;;;;9.27;51.03;101259.50;5055118;28;45499;-58
2022/03/10 04:59:32;;;;;;;;;46.25;37.25;;;;;9.23;50.97;101253.44;5055746;28;45498;-58
2022/03/10 05:01:58;;;;;;;;;38.00;35.25;;;;;9.22;51.52;101254.34;5054879;28;45401;-58
2022/03/10 05:04:23;;;;;;;;;35.25;34.50;;;;;9.26;51.44;101266.47;5061571;28;45501;-58
2022/03/10 05:06:48;;;;;;;;;48.25;38.00;;;;;9.22;51.36;101256.97;5073517;28;45452;-58
2022/03/10 05:09:14;;;;;;;;;33.75;33.75;;;;;9.18;51.45;101254.41;5075490;28;45509;-58
2022/03/10 05:11:39;;;;;;;;;40.50;37.75;;;;;9.15;51.73;101252.72;5075377;27;45484;-58
2022/03/10 05:14:05;;;;;;;;;35.00;35.00;;;;;9.15;51.15;101257.97;5056360;28;45392;-59
2022/03/10 05:16:30;;;;;;;;;40.75;37.25;;;;;9.13;51.13;101251.00;5054950;28;45982;-59
2022/03/10 05:18:56;;;;;;;;;34.00;28.75;;;;;9.11;51.59;101253.69;5055020;28;45354;-59
2022/03/10 05:21:21;;;;;;;;;40.25;36.25;;;;;9.09;51.87;101246.72;5055400;28;45426;-59
2022/03/10 05:23:46;;;;;;;;;45.00;35.25;;;;;9.09;51.72;101249.34;5060178;28;47577;-59
2022/03/10 05:26:12;;;;;;;;;45.50;40.00;;;;;9.03;51.59;101253.81;5054620;28;46318;-59
2022/03/10 05:28:37;;;;;;;;;37.25;33.75;;;;;9.04;51.91;101254.69;5070041;27;45452;-59
2022/03/10 05:31:02;;;;;;;;;42.50;37.25;;;;;9.02;51.75;101251.22;5078738;27;45503;-60
2022/03/10 05:33:28;;;;;;;;;42.50;37.00;;;;;9.01;51.64;101252.13;5076775;28;45528;-59
2022/03/10 05:35:53;;;;;;;;;39.50;36.50;;;;;8.99;51.94;101251.25;5064038;28;46006;-58
2022/03/10 05:38:18;;;;;;;;;36.50;35.25;;;;;8.97;52.09;101248.69;5069325;28;45469;-59
2022/03/10 05:40:44;;;;;;;;;34.75;33.00;;;;;8.96;52.20;101248.72;5057975;28;45477;-60
2022/03/10 05:43:09;;;;;;;;;40.25;38.75;;;;;8.92;52.07;101247.91;5057776;28;45604;-59
2022/03/10 05:45:35;;;;;;;;;43.50;38.75;;;;;8.92;52.27;101252.25;5058038;28;45418;-59
2022/03/10 05:48:00;;;;;;;;;39.00;35.75;;;;;8.91;52.11;101258.41;5070881;28;45549;-59
2022/03/10 05:50:26;;;;;;;;;40.00;37.75;;;;;8.90;51.93;101262.81;5077480;28;45416;-59
2022/03/10 05:52:53;;;;;;;;;43.25;37.00;;;;;8.89;52.32;101255.81;5077180;27;45433;-59
2022/03/10 05:55:20;;;;;;;;;36.50;35.00;;;;;8.88;52.34;101253.22;5070835;27;46360;-58
2022/03/10 05:57:45;;;;;;;;;40.50;35.50;;;;;8.88;52.02;101250.59;5057972;28;45497;-59
2022/03/10 06:00:11;;;;;;;;;34.50;34.50;;;;;8.85;52.62;101254.16;5057595;28;45370;-59
2022/03/10 06:02:38;;;;;;;;;39.50;35.00;;;;;8.83;52.35;101258.53;5059370;28;45705;-59
2022/03/10 06:05:04;;;;;;;;;31.75;30.50;;;;;8.78;52.31;101250.75;5057281;28;46097;-59
2022/03/10 06:07:31;;;;;;;;;34.25;34.25;;;;;8.81;52.66;101262.94;5057354;28;45432;-59
2022/03/10 06:09:57;;;;;;;;;38.00;36.75;;;;;8.80;52.55;101262.09;5057184;28;45475;-59
2022/03/10 06:12:24;;;;;;;;;38.00;34.25;;;;;8.76;53.13;101257.81;5058537;28;45484;-58
2022/03/10 06:14:57;;;;;;;;;38.25;36.25;;;;;8.74;53.23;101256.94;5072800;28;45365;-58
2022/03/10 06:17:22;;;;;;;;;34.00;34.00;;;;;8.74;53.04;101251.72;5057777;28;45395;-58
2022/03/10 06:19:49;;;;;;;;;43.50;38.25;;;;;8.73;53.25;101259.59;5064806;28;45559;-58
2022/03/10 06:22:22;;;;;;;;;40.75;36.25;;;;;8.70;52.78;101260.50;5073782;27;45557;-59
2022/03/10 06:24:48;;;;;;;;;42.75;38.25;;;;;8.71;53.64;101259.63;5058606;28;46222;-59
2022/03/10 06:27:15;;;;;;;;;39.50;38.00;;;;;8.71;53.03;101262.25;5061738;28;45489;-61
2022/03/10 06:29:41;;;;;;;;;49.25;40.50;;;;;8.70;53.37;101265.75;5066475;28;45398;-60
2022/03/10 06:32:07;;;;;;;;;35.00;30.00;;;;;8.67;53.72;101254.47;5057044;28;45470;-61
2022/03/10 06:34:32;;;;;;;;;41.00;35.75;;;;;8.68;53.51;101262.31;5058473;28;45743;-61
2022/03/10 06:36:58;;;;;;;;;35.00;33.25;;;;;8.68;53.44;101275.41;5066303;27;45552;-61
2022/03/10 06:39:24;;;;;;;;;29.00;23.75;;;;;8.71;53.45;101271.88;5075798;28;45525;-60
2022/03/10 06:41:49;;;;;;;;;39.00;36.75;;;;;8.67;53.38;101272.81;5062369;28;45545;-61
2022/03/10 06:44:14;;;;;;;;;39.50;34.25;;;;;8.68;53.91;101270.19;5061590;28;45419;-61
2022/03/10 06:46:40;;;;;;;;;35.75;33.75;;;;;8.68;53.73;101269.28;5063777;28;45570;-60
2022/03/10 06:49:05;;;;;;;;;39.25;34.25;;;;;8.67;53.59;101271.06;5057434;28;45400;-61
2022/03/10 06:51:31;;;;;;;;;43.25;38.00;;;;;8.67;54.36;101267.56;5057091;28;45521;-61
2022/03/10 06:53:57;;;;;;;;;38.00;37.00;;;;;8.64;53.87;101278.97;5056869;28;46036;-60
2022/03/10 06:56:23;;;;;;;;;42.00;37.50;;;;;8.60;53.95;101270.31;5066638;28;45560;-62
2022/03/10 06:58:48;;;;;;;;;38.75;37.00;;;;;8.65;54.31;101277.22;5068591;28;45520;-59
2022/03/10 07:01:13;;;;;;;;;44.25;39.25;;;;;8.61;54.30;101274.63;5061056;27;45597;-65
2022/03/10 07:03:39;;;;;;;;;42.75;40.25;;;;;8.60;54.37;101275.53;5065499;28;48421;-65
2022/03/10 07:06:04;;;;;;;;;38.50;37.00;;;;;8.57;54.69;101280.84;5058159;28;45560;-66
2022/03/10 07:08:30;;;;;;;;;38.00;37.25;;;;;8.56;54.14;101281.72;5063380;28;45437;-64
2022/03/10 07:10:55;;;;;;;;;40.75;37.00;;;;;8.59;54.75;101289.53;5068296;27;45528;-65
2022/03/10 07:13:20;;;;;;;;;39.25;35.00;;;;;8.58;55.04;101276.47;5060138;28;45532;-59
2022/03/10 07:15:46;;;;;;;;;40.50;37.50;;;;;8.62;54.77;101289.50;5057129;27;45441;-63
2022/03/10 07:18:11;;;;;;;;;47.25;39.00;;;;;8.62;54.24;101292.13;5068211;28;45566;-63
2022/03/10 07:20:37;;;;;;;;;39.75;37.00;;;;;8.68;54.39;101292.88;5069396;28;45398;-62
2022/03/10 07:23:02;;;;;;;;;40.25;37.25;;;;;8.63;54.66;101279.88;5060846;28;45656;-62
2022/03/10 07:25:28;;;;;;;;;37.75;35.00;;;;;8.69;54.53;101292.88;5056237;28;45354;-62
2022/03/10 07:27:53;;;;;;;;;43.00;38.25;;;;;8.75;54.77;101297.16;5057183;27;45464;-62
2022/03/10 07:30:19;;;;;;;;;40.75;37.00;;;;;8.78;54.39;101302.34;5057781;28;45718;-63
2022/03/10 07:32:44;;;;;;;;;35.50;35.25;;;;;8.75;54.21;101292.75;5060318;28;45838;-63
2022/03/10 07:35:09;;;;;;;;;43.25;37.00;;;;;8.78;54.48;101300.56;5063714;28;45532;-63
2022/03/10 07:37:35;;;;;;;;;35.75;34.25;;;;;8.77;55.10;101303.25;5065303;27;45739;-63
2022/03/10 07:40:00;;;;;;;;;36.50;34.25;;;;;8.76;55.00;101294.50;5061957;28;45526;-63
2022/03/10 07:42:26;;;;;;;;;38.25;33.00;;;;;8.81;54.66;101307.53;5056244;28;45466;-62
2022/03/10 07:44:52;;;;;;;;;38.75;36.50;;;;;8.84;54.88;101295.25;5056063;28;45443;-62
2022/03/10 07:47:18;;;;;;;;;46.00;40.00;;;;;8.84;54.88;101295.25;5068742;28;45578;-63
2022/03/10 07:49:43;;;;;;;;;34.75;34.75;;;;;8.88;54.85;101298.69;5062150;27;45442;-63
2022/03/10 07:52:09;;;;;;;;;36.00;34.50;;;;;8.91;54.30;101306.50;5055222;28;46472;-63
2022/03/10 07:54:34;;;;;;;;;35.50;33.75;;;;;8.92;54.94;101297.75;5055795;28;45485;-63
2022/03/10 07:56:59;;;;;;;;;36.50;33.75;;;;;8.98;54.81;101315.13;5056122;28;45430;-63
2022/03/10 07:59:25;;;;;;;;;41.75;37.00;;;;;9.02;54.53;101298.44;5056152;28;45358;-62
2022/03/10 08:01:50;;;;;;;;;39.00;35.75;;;;;9.07;54.71;101300.06;5055661;28;45447;-63
2022/03/10 08:04:16;;;;;;;;;40.25;36.25;;;;;9.11;54.49;101305.28;5055837;28;45468;-62
2022/03/10 08:06:41;;;;;;;;;31.50;29.75;;;;;9.13;54.51;101306.13;5056161;28;45542;-62
2022/03/10 08:09:07;;;;;;;;;35.50;34.00;;;;;9.18;54.28;101304.28;5055897;28;45532;-62
2022/03/10 08:11:33;;;;;;;;;36.50;35.25;;;;;9.23;54.66;101298.03;5055553;28;45529;-62
2022/03/10 08:13:58;;;;;;;;;38.75;34.75;;;;;9.28;54.71;101305.84;5055780;28;45527;-62
2022/03/10 08:16:24;;;;;;;;;41.75;36.50;;;;;9.26;54.69;101292.72;5055559;28;45480;-62
2022/03/10 08:18:49;;;;;;;;;36.75;32.75;;;;;9.33;54.16;101303.13;5055573;28;45433;-62
2022/03/10 08:21:16;;;;;;;;;39.75;36.25;;;;;9.40;54.47;101303.00;5055867;27;45378;-62
2022/03/10 08:23:42;;;;;;;;;38.25;33.75;;;;;9.44;54.18;101312.53;5054836;28;45410;-62
2022/03/10 08:26:08;;;;;;;;;38.50;35.00;;;;;9.47;53.85;101301.09;5055839;28;45416;-62
2022/03/10 08:28:34;;;;;;;;;36.00;33.00;;;;;9.49;54.23;101302.81;5054718;28;45644;-61
2022/03/10 08:30:59;;;;;;;;;37.75;33.75;;;;;9.55;53.97;101304.44;5054541;28;45420;-62
2022/03/10 08:33:25;;;;;;;;;31.00;31.00;;;;;9.58;53.72;101300.91;5054091;28;45417;-62
2022/03/10 08:35:50;;;;;;;;;39.50;36.00;;;;;9.60;53.76;101297.34;5055972;28;45433;-62
2022/03/10 08:38:16;;;;;;;;;46.50;37.00;;;;;9.62;54.05;101303.44;5055518;28;45337;-62
2022/03/10 08:40:42;;;;;;;;;38.00;36.50;;;;;9.66;53.79;101293.72;5055401;28;45566;-62
2022/03/10 08:43:12;;;;;;;;;35.00;32.00;;;;;9.69;53.91;101291.88;5055332;28;45404;-63
2022/03/10 08:45:38;;;;;;;;;37.00;34.50;;;;;9.73;53.74;101290.94;5055557;28;45430;-62
2022/03/10 08:48:04;;;;;;;;;36.50;36.00;;;;;9.79;53.80;101281.22;5055409;28;45398;-62
2022/03/10 08:50:29;;;;;;;;;41.25;36.25;;;;;9.86;53.83;101286.31;5055297;28;45548;-62
2022/03/10 08:52:55;;;;;;;;;39.00;37.00;;;;;9.91;53.67;101287.06;5055391;28;45367;-62
2022/03/10 08:55:21;;;;;;;;;34.00;32.25;;;;;9.95;53.91;101283.47;5055147;28;45418;-62
2022/03/10 08:57:47;;;;;;;;;36.75;35.75;;;;;10.01;53.37;101285.09;5055270;28;45426;-62
2022/03/10 09:00:14;;;;;;;;;39.50;36.25;;;;;10.07;53.48;101282.31;5055120;28;46226;-62
2022/03/10 09:02:41;;;;;;;;;35.25;32.25;;;;;10.13;53.22;101282.22;5055048;28;45525;-63
2022/03/10 09:05:08;;;;;;;;;36.75;35.25;;;;;10.19;53.44;101286.47;5057642;28;45464;-63
2022/03/10 09:07:34;;;;;;;;;39.25;33.00;;;;;10.23;53.55;101274.97;5058446;28;45395;-63
2022/03/10 09:09:59;;;;;;;;;32.00;32.00;;;;;10.34;53.12;101280.88;5058508;28;45428;-63
2022/03/10 09:12:24;;;;;;;;;34.00;32.50;;;;;10.42;53.21;101285.94;5058570;28;45451;-63
2022/03/10 09:14:50;;;;;;;;;43.50;37.25;;;;;10.55;53.09;101283.88;5058728;28;45351;-62
2022/03/10 09:17:15;;;;;;;;;44.00;38.50;;;;;10.65;52.29;101281.91;5058843;28;45360;-63
2022/03/10 09:19:40;;;;;;;;;45.75;37.75;;;;;10.70;52.54;101285.28;5058539;28;45865;-63
2022/03/10 09:22:06;;;;;;;;;33.00;31.25;;;;;10.70;52.30;101283.53;5074439;27;45312;-63
2022/03/10 09:24:31;;;;;;;;;41.75;33.25;;;;;10.73;52.61;101287.84;5058551;28;45379;-63
2022/03/10 09:26:58;;;;;;;;;30.75;25.50;;;;;10.75;52.05;101280.78;5058337;28;45499;-63
2022/03/10 09:29:23;;;;;;;;;32.75;31.75;;;;;10.79;52.63;101285.06;5058093;28;46192;-63
2022/03/10 09:31:49;;;;;;;;;30.00;28.25;;;;;10.82;51.86;101275.31;5073428;27;45457;-63
2022/03/10 09:34:14;;;;;;;;;32.75;29.50;;;;;10.84;52.20;101276.13;5058029;28;45810;-63
2022/03/10 09:36:40;;;;;;;;;38.25;32.50;;;;;10.88;52.65;101276.94;5058140;28;45386;-63
2022/03/10 09:39:05;;;;;;;;;31.25;27.50;;;;;10.94;52.87;101276.78;5058162;28;45488;-63
2022/03/10 09:41:31;;;;;;;;;37.75;29.75;;;;;11.00;51.68;101275.75;5058132;28;45482;-63
2022/03/10 09:43:56;;;;;;;;;22.75;22.75;;;;;11.02;51.59;101280.06;5058413;28;45438;-63
2022/03/10 09:46:22;;;;;;;;;27.00;27.00;;;;;11.08;52.52;101273.78;5058183;28;45436;-63
2022/03/10 09:48:47;;;;;;;;;28.25;25.75;;;;;11.12;52.07;101275.41;5057984;28;45412;-63
2022/03/10 09:51:14;;;;;;;;;29.00;28.00;;;;;11.17;51.60;101272.66;5057796;28;45469;-63
2022/03/10 09:53:39;;;;;;;;;31.25;30.25;;;;;11.20;52.26;101268.19;5057892;27;45459;-64
2022/03/10 09:56:05;;;;;;;;;29.25;27.00;;;;;11.27;52.37;101264.47;5057738;28;45372;-63
2022/03/10 09:58:31;;;;;;;;;30.50;27.50;;;;;11.34;51.86;101266.91;5057692;28;45346;-63
2022/03/10 10:01:07;;;;;;;;;27.50;24.00;;;;;11.43;52.01;101270.16;5057800;28;45410;-63
2022/03/10 10:03:33;;;;;;;;;28.00;28.00;;;;;11.49;51.74;101269.13;5058069;28;45565;-63
2022/03/10 10:06:01;;;;;;;;;25.50;24.25;;;;;11.55;51.00;101270.72;5057712;28;45490;-63
2022/03/10 10:08:30;;;;;;;;;23.75;21.00;;;;;11.69;51.84;101272.06;5057574;28;46422;-63
2022/03/10 10:11:01;;;;;;;;;31.75;28.00;;;;;11.89;50.34;101268.88;5057210;28;45482;-62
2022/03/10 10:13:28;;;;;;;;;27.50;25.75;;;;;11.94;50.51;101261.69;5057868;28;45488;-62
2022/03/10 10:15:57;;;;;;;;;26.25;26.25;;;;;11.98;51.14;101266.84;5056771;28;45498;-62
2022/03/10 10:18:23;;;;;;;;;25.50;25.50;;;;;12.01;50.39;101262.38;5073062;28;46752;-62
2022/03/10 10:20:51;;;;;;;;;28.25;25.75;;;;;12.07;50.80;101264.81;5057379;28;45490;-62
2022/03/10 10:23:21;;;;;;;;;28.00;24.00;;;;;12.24;50.00;101252.88;5057431;28;45456;-62
2022/03/10 10:25:55;;;;;;;;;25.50;23.00;;;;;12.52;49.57;101256.34;5057448;28;45370;-62
2022/03/10 10:28:27;;;;;;;;;28.00;27.00;;;;;12.85;49.11;101248.22;5073028;28;47306;-62
2022/03/10 10:30:55;;;;;;;;;26.50;24.50;;;;;13.12;48.35;101246.38;5055851;28;45533;-62
2022/03/10 10:33:22;;;;;;;;;27.25;24.50;;;;;13.27;48.03;101245.00;5057201;28;45472;-62
2022/03/10 10:35:47;;;;;;;;;27.50;27.50;;;;;13.21;47.96;101238.13;5057618;28;45667;-62
2022/03/10 10:38:30;;;;;;;;;29.50;28.00;;;;;13.16;48.20;101236.56;5057073;28;45950;-62
2022/03/10 10:41:18;;;;;;;;;24.25;23.00;;;;;13.13;48.85;101236.69;5057357;28;45473;-62
2022/03/10 10:43:49;;;;;;;;;18.50;16.75;;;;;13.03;48.29;101223.81;5072672;28;45371;-63
2022/03/10 10:46:54;;;;;;;;;28.00;25.00;;;;;12.98;48.57;101223.09;5056922;28;45425;-63
2022/03/10 10:49:22;;;;;;;;;23.00;23.00;;;;;12.99;48.63;101218.69;5035765;28;46394;-63
2022/03/10 10:51:51;;;;;;;;;20.00;19.33;;;;;12.98;48.97;101220.47;5056861;28;45567;-63
2022/03/10 10:54:23;;;;;;;;;18.50;18.50;;;;;12.95;49.04;101217.94;5056956;28;45475;-63
2022/03/10 10:56:57;;;;;;;;;17.00;16.67;;;;;12.94;48.73;101215.34;5056839;28;45463;-63
2022/03/10 10:59:32;;;;;;;;;17.67;16.33;;;;;12.93;49.45;101209.22;5056535;28;46358;-63
2022/03/10 11:02:12;;;;;;;;;18.00;17.00;;;;;12.98;49.39;101203.78;5056723;28;45691;-63
2022/03/10 11:04:46;;;;;;;;;24.75;21.00;;;;;13.00;48.74;101202.81;5056781;28;45372;-63
2022/03/10 11:07:12;;;;;;;;;20.50;19.50;;;;;13.05;48.75;101199.97;5056880;28;45478;-63
2022/03/10 11:09:39;;;;;;;;;21.00;21.00;;;;;13.08;49.88;101193.72;5056460;28;46005;-63
2022/03/10 11:12:08;;;;;;;;;19.33;18.33;;;;;13.11;49.73;101193.59;5056130;28;45492;-62
2022/03/10 11:14:34;;;;;;;;;18.67;17.00;;;;;13.13;49.49;101191.78;5056382;28;45398;-62
2022/03/10 11:17:00;;;;;;;;;15.33;15.33;;;;;13.14;49.54;101188.25;5056625;28;45499;-62